sensor_id;sensor_type;location;lat;lon;timestamp;pressure;altitude;pressure_sealevel;temperature;humidity
80242;BME280;69556;45.004;7.532;2023-07-02T00:00:15;97810.84;;;20.38;73.94
80242;BME280;69556;45.004;7.532;2023-07-02T00:02:41;97806.56;;;20.36;73.82
80242;BME280;69556;45.004;7.532;2023-07-02T00:05:06;97815.59;;;20.35;74.61
80242;BME280;69556;45.004;7.532;2023-07-02T00:07:32;97810.50;;;20.32;75.34
80242;BME280;69556;45.004;7.532;2023-07-02T00:09:59;97813.31;;;20.30;75.04
80242;BME280;69556;45.004;7.532;2023-07-02T00:12:24;97811.72;;;20.28;75.29
80242;BME280;69556;45.004;7.532;2023-07-02T00:14:50;97816.22;;;20.27;76.27
80242;BME280;69556;45.004;7.532;2023-07-02T00:17:18;97812.69;;;20.27;77.61
80242;BME280;69556;45.004;7.532;2023-07-02T00:19:43;97811.84;;;20.26;77.38
80242;BME280;69556;45.004;7.532;2023-07-02T00:22:11;97810.88;;;20.27;76.67
80242;BME280;69556;45.004;7.532;2023-07-02T00:24:37;97818.16;;;20.25;76.48
80242;BME280;69556;45.004;7.532;2023-07-02T00:27:03;97807.84;;;20.20;77.37
80242;BME280;69556;45.004;7.532;2023-07-02T00:29:29;97813.59;;;20.16;77.62
80242;BME280;69556;45.004;7.532;2023-07-02T00:31:54;97814.44;;;20.16;77.59
80242;BME280;69556;45.004;7.532;2023-07-02T00:34:20;97809.38;;;20.13;77.86
80242;BME280;69556;45.004;7.532;2023-07-02T00:36:46;97826.41;;;20.12;77.95
80242;BME280;69556;45.004;7.532;2023-07-02T00:39:12;97828.31;;;20.01;78.29
80242;BME280;69556;45.004;7.532;2023-07-02T00:41:38;97827.50;;;19.89;78.09
80242;BME280;69556;45.004;7.532;2023-07-02T00:44:03;97834.81;;;19.87;79.92
80242;BME280;69556;45.004;7.532;2023-07-02T00:46:30;97828.25;;;19.80;78.42
80242;BME280;69556;45.004;7.532;2023-07-02T00:48:56;97819.53;;;19.78;78.29
80242;BME280;69556;45.004;7.532;2023-07-02T00:51:23;97822.06;;;19.79;78.04
80242;BME280;69556;45.004;7.532;2023-07-02T00:53:50;97827.28;;;19.81;77.56
80242;BME280;69556;45.004;7.532;2023-07-02T00:56:17;97829.00;;;19.82;77.80
80242;BME280;69556;45.004;7.532;2023-07-02T00:58:44;97835.22;;;19.83;77.79
80242;BME280;69556;45.004;7.532;2023-07-02T01:01:24;97841.06;;;19.76;77.99
80242;BME280;69556;45.004;7.532;2023-07-02T01:03:51;97833.16;;;19.75;78.79
80242;BME280;69556;45.004;7.532;2023-07-02T01:06:19;97827.31;;;19.70;78.32
80242;BME280;69556;45.004;7.532;2023-07-02T01:08:51;97826.63;;;19.68;78.75
80242;BME280;69556;45.004;7.532;2023-07-02T01:11:18;97825.75;;;19.67;79.55
80242;BME280;69556;45.004;7.532;2023-07-02T01:13:45;97821.84;;;19.71;79.47
80242;BME280;69556;45.004;7.532;2023-07-02T01:16:11;97825.13;;;19.75;79.21
80242;BME280;69556;45.004;7.532;2023-07-02T01:18:37;97821.47;;;19.76;78.95
80242;BME280;69556;45.004;7.532;2023-07-02T01:21:05;97820.50;;;19.77;78.85
80242;BME280;69556;45.004;7.532;2023-07-02T01:23:31;97831.91;;;19.79;79.14
80242;BME280;69556;45.004;7.532;2023-07-02T01:25:57;97821.59;;;19.74;79.63
80242;BME280;69556;45.004;7.532;2023-07-02T01:28:25;97830.63;;;19.73;79.52
80242;BME280;69556;45.004;7.532;2023-07-02T01:30:50;97829.63;;;19.74;79.24
80242;BME280;69556;45.004;7.532;2023-07-02T01:33:15;97834.13;;;19.74;79.49
80242;BME280;69556;45.004;7.532;2023-07-02T01:35:41;97833.91;;;19.66;80.01
80242;BME280;69556;45.004;7.532;2023-07-02T01:38:06;97834.28;;;19.61;80.55
80242;BME280;69556;45.004;7.532;2023-07-02T01:40:31;97830.28;;;19.56;80.88
80242;BME280;69556;45.004;7.532;2023-07-02T01:42:57;97836.16;;;19.50;80.70
80242;BME280;69556;45.004;7.532;2023-07-02T01:45:22;97837.38;;;19.46;80.06
80242;BME280;69556;45.004;7.532;2023-07-02T01:47:47;97839.34;;;19.44;80.52
80242;BME280;69556;45.004;7.532;2023-07-02T01:50:13;97842.34;;;19.39;80.98
80242;BME280;69556;45.004;7.532;2023-07-02T01:52:38;97848.56;;;19.40;80.78
80242;BME280;69556;45.004;7.532;2023-07-02T01:55:04;97846.00;;;19.38;80.97
80242;BME280;69556;45.004;7.532;2023-07-02T01:57:29;97844.53;;;19.34;81.33
80242;BME280;69556;45.004;7.532;2023-07-02T01:59:55;97846.47;;;19.32;82.25
80242;BME280;69556;45.004;7.532;2023-07-02T02:02:21;97845.19;;;19.26;82.04
80242;BME280;69556;45.004;7.532;2023-07-02T02:04:46;97848.34;;;19.20;82.79
80242;BME280;69556;45.004;7.532;2023-07-02T02:07:11;97845.78;;;19.19;82.89
80242;BME280;69556;45.004;7.532;2023-07-02T02:09:37;97837.16;;;19.15;83.01
80242;BME280;69556;45.004;7.532;2023-07-02T02:12:02;97839.94;;;19.14;82.38
80242;BME280;69556;45.004;7.532;2023-07-02T02:14:28;97840.19;;;19.11;82.39
80242;BME280;69556;45.004;7.532;2023-07-02T02:16:53;97841.06;;;19.11;83.59
80242;BME280;69556;45.004;7.532;2023-07-02T02:19:18;97836.66;;;19.10;83.24
80242;BME280;69556;45.004;7.532;2023-07-02T02:21:44;97846.16;;;19.14;82.90
80242;BME280;69556;45.004;7.532;2023-07-02T02:24:09;97847.84;;;19.15;83.34
80242;BME280;69556;45.004;7.532;2023-07-02T02:26:35;97845.28;;;19.14;83.28
80242;BME280;69556;45.004;7.532;2023-07-02T02:29:01;97847.25;;;19.12;83.38
80242;BME280;69556;45.004;7.532;2023-07-02T02:31:26;97839.47;;;19.09;82.90
80242;BME280;69556;45.004;7.532;2023-07-02T02:33:51;97838.75;;;19.07;83.05
80242;BME280;69556;45.004;7.532;2023-07-02T02:36:17;97837.03;;;19.06;83.14
80242;BME280;69556;45.004;7.532;2023-07-02T02:38:42;97843.59;;;19.02;83.27
80242;BME280;69556;45.004;7.532;2023-07-02T02:41:08;97842.66;;;19.03;83.06
80242;BME280;69556;45.004;7.532;2023-07-02T02:43:33;97831.09;;;19.02;83.23
80242;BME280;69556;45.004;7.532;2023-07-02T02:45:59;97838.16;;;19.03;83.53
80242;BME280;69556;45.004;7.532;2023-07-02T02:48:24;97842.66;;;19.03;82.81
80242;BME280;69556;45.004;7.532;2023-07-02T02:50:50;97833.50;;;19.05;82.13
80242;BME280;69556;45.004;7.532;2023-07-02T02:53:16;97837.78;;;19.08;82.28
80242;BME280;69556;45.004;7.532;2023-07-02T02:55:41;97836.56;;;19.12;82.07
80242;BME280;69556;45.004;7.532;2023-07-02T02:58:06;97840.94;;;19.13;81.76
80242;BME280;69556;45.004;7.532;2023-07-02T03:00:32;97829.75;;;19.08;83.15
80242;BME280;69556;45.004;7.532;2023-07-02T03:02:58;97835.31;;;19.05;82.14
80242;BME280;69556;45.004;7.532;2023-07-02T03:05:23;97839.81;;;19.04;81.67
80242;BME280;69556;45.004;7.532;2023-07-02T03:07:50;97834.47;;;19.04;81.51
80242;BME280;69556;45.004;7.532;2023-07-02T03:10:15;97844.94;;;19.07;80.90
80242;BME280;69556;45.004;7.532;2023-07-02T03:12:41;97844.81;;;19.09;81.37
80242;BME280;69556;45.004;7.532;2023-07-02T03:15:06;97839.72;;;19.06;81.29
80242;BME280;69556;45.004;7.532;2023-07-02T03:17:33;97851.75;;;19.00;81.67
80242;BME280;69556;45.004;7.532;2023-07-02T03:19:58;97849.44;;;18.96;81.62
80242;BME280;69556;45.004;7.532;2023-07-02T03:22:24;97848.94;;;18.90;81.47
80242;BME280;69556;45.004;7.532;2023-07-02T03:24:49;97852.13;;;18.84;82.20
80242;BME280;69556;45.004;7.532;2023-07-02T03:27:14;97853.94;;;18.84;82.22
80242;BME280;69556;45.004;7.532;2023-07-02T03:29:40;97853.19;;;18.82;82.58
80242;BME280;69556;45.004;7.532;2023-07-02T03:32:05;97851.50;;;18.81;82.68
80242;BME280;69556;45.004;7.532;2023-07-02T03:34:31;97849.31;;;18.75;82.82
80242;BME280;69556;45.004;7.532;2023-07-02T03:36:56;97852.34;;;18.70;82.89
80242;BME280;69556;45.004;7.532;2023-07-02T03:39:22;97859.53;;;18.70;82.64
80242;BME280;69556;45.004;7.532;2023-07-02T03:41:47;97853.69;;;18.65;83.60
80242;BME280;69556;45.004;7.532;2023-07-02T03:44:13;97865.34;;;18.64;83.51
80242;BME280;69556;45.004;7.532;2023-07-02T03:46:38;97860.00;;;18.64;83.96
80242;BME280;69556;45.004;7.532;2023-07-02T03:49:04;97866.31;;;18.63;83.46
80242;BME280;69556;45.004;7.532;2023-07-02T03:51:30;97867.28;;;18.62;83.48
80242;BME280;69556;45.004;7.532;2023-07-02T03:53:55;97865.34;;;18.64;83.73
80242;BME280;69556;45.004;7.532;2023-07-02T03:56:20;97861.72;;;18.65;83.19
80242;BME280;69556;45.004;7.532;2023-07-02T03:58:46;97874.59;;;18.71;83.25
80242;BME280;69556;45.004;7.532;2023-07-02T04:01:12;97880.41;;;18.76;82.96
80242;BME280;69556;45.004;7.532;2023-07-02T04:03:37;97885.75;;;18.76;83.39
80242;BME280;69556;45.004;7.532;2023-07-02T04:06:03;97878.00;;;18.73;83.67
80242;BME280;69556;45.004;7.532;2023-07-02T04:08:31;97890.66;;;18.71;83.45
80242;BME280;69556;45.004;7.532;2023-07-02T04:10:56;97874.09;;;18.66;83.26
80242;BME280;69556;45.004;7.532;2023-07-02T04:13:21;97889.03;;;18.68;83.06
80242;BME280;69556;45.004;7.532;2023-07-02T04:15:47;97891.00;;;18.66;83.16
80242;BME280;69556;45.004;7.532;2023-07-02T04:18:12;97893.53;;;18.68;83.11
80242;BME280;69556;45.004;7.532;2023-07-02T04:20:38;97894.28;;;18.70;82.76
80242;BME280;69556;45.004;7.532;2023-07-02T04:23:06;97898.66;;;18.71;83.12
80242;BME280;69556;45.004;7.532;2023-07-02T04:25:32;97897.66;;;18.72;83.29
80242;BME280;69556;45.004;7.532;2023-07-02T04:27:57;97901.44;;;18.69;82.70
80242;BME280;69556;45.004;7.532;2023-07-02T04:30:24;97897.66;;;18.72;82.73
80242;BME280;69556;45.004;7.532;2023-07-02T04:32:49;97911.53;;;18.77;82.65
80242;BME280;69556;45.004;7.532;2023-07-02T04:35:14;97910.31;;;18.81;82.85
80242;BME280;69556;45.004;7.532;2023-07-02T04:37:40;97915.19;;;18.87;82.26
80242;BME280;69556;45.004;7.532;2023-07-02T04:40:06;97905.97;;;18.91;82.25
80242;BME280;69556;45.004;7.532;2023-07-02T04:42:38;97918.97;;;18.96;82.31
80242;BME280;69556;45.004;7.532;2023-07-02T04:45:07;97915.22;;;18.98;82.55
80242;BME280;69556;45.004;7.532;2023-07-02T04:47:36;97913.16;;;19.02;82.11
80242;BME280;69556;45.004;7.532;2023-07-02T04:50:01;97913.75;;;19.05;82.26
80242;BME280;69556;45.004;7.532;2023-07-02T04:52:27;97911.81;;;19.07;82.14
80242;BME280;69556;45.004;7.532;2023-07-02T04:54:52;97920.19;;;19.14;81.98
80242;BME280;69556;45.004;7.532;2023-07-02T04:57:18;97921.53;;;19.19;82.01
80242;BME280;69556;45.004;7.532;2023-07-02T04:59:44;97920.09;;;19.26;81.59
80242;BME280;69556;45.004;7.532;2023-07-02T05:02:09;97920.69;;;19.30;81.73
80242;BME280;69556;45.004;7.532;2023-07-02T05:04:36;97929.06;;;19.36;81.14
80242;BME280;69556;45.004;7.532;2023-07-02T05:07:03;97924.22;;;19.42;80.73
80242;BME280;69556;45.004;7.532;2023-07-02T05:09:29;97920.13;;;19.49;80.79
80242;BME280;69556;45.004;7.532;2023-07-02T05:11:54;97928.75;;;19.52;79.49
80242;BME280;69556;45.004;7.532;2023-07-02T05:14:20;97917.91;;;19.54;79.35
80242;BME280;69556;45.004;7.532;2023-07-02T05:16:45;97930.56;;;19.63;79.27
80242;BME280;69556;45.004;7.532;2023-07-02T05:19:11;97932.75;;;19.69;79.33
80242;BME280;69556;45.004;7.532;2023-07-02T05:21:36;97930.78;;;19.71;78.72
80242;BME280;69556;45.004;7.532;2023-07-02T05:24:01;97932.97;;;19.77;78.19
80242;BME280;69556;45.004;7.532;2023-07-02T05:26:27;97935.13;;;19.83;78.19
80242;BME280;69556;45.004;7.532;2023-07-02T05:28:53;97939.41;;;19.86;78.12
80242;BME280;69556;45.004;7.532;2023-07-02T05:31:18;97937.31;;;19.89;78.23
80242;BME280;69556;45.004;7.532;2023-07-02T05:33:44;97941.06;;;19.98;77.16
80242;BME280;69556;45.004;7.532;2023-07-02T05:36:09;97936.19;;;20.03;76.85
80242;BME280;69556;45.004;7.532;2023-07-02T05:38:34;97938.47;;;20.07;77.32
80242;BME280;69556;45.004;7.532;2023-07-02T05:41:00;97938.09;;;20.12;77.07
80242;BME280;69556;45.004;7.532;2023-07-02T05:43:25;97928.72;;;20.17;76.66
80242;BME280;69556;45.004;7.532;2023-07-02T05:45:51;97935.50;;;20.21;76.60
80242;BME280;69556;45.004;7.532;2023-07-02T05:48:17;97935.97;;;20.27;76.41
80242;BME280;69556;45.004;7.532;2023-07-02T05:50:43;97937.44;;;20.31;75.61
80242;BME280;69556;45.004;7.532;2023-07-02T05:53:08;97940.88;;;20.33;75.93
80242;BME280;69556;45.004;7.532;2023-07-02T05:55:34;97938.91;;;20.35;75.65
80242;BME280;69556;45.004;7.532;2023-07-02T05:58:00;97936.84;;;20.38;76.01
80242;BME280;69556;45.004;7.532;2023-07-02T06:00:28;97934.84;;;20.40;76.47
80242;BME280;69556;45.004;7.532;2023-07-02T06:02:53;97944.09;;;20.47;76.34
80242;BME280;69556;45.004;7.532;2023-07-02T06:05:18;97948.22;;;20.51;76.58
80242;BME280;69556;45.004;7.532;2023-07-02T06:07:44;97949.78;;;20.54;76.31
80242;BME280;69556;45.004;7.532;2023-07-02T06:10:09;97954.75;;;20.58;76.00
80242;BME280;69556;45.004;7.532;2023-07-02T06:12:35;97953.78;;;20.59;76.42
80242;BME280;69556;45.004;7.532;2023-07-02T06:15:00;97962.41;;;20.63;76.77
80242;BME280;69556;45.004;7.532;2023-07-02T06:17:25;97965.09;;;20.63;77.13
80242;BME280;69556;45.004;7.532;2023-07-02T06:19:50;97961.91;;;20.69;76.55
80242;BME280;69556;45.004;7.532;2023-07-02T06:22:16;97963.59;;;20.70;76.36
80242;BME280;69556;45.004;7.532;2023-07-02T06:24:41;97970.13;;;20.77;76.96
80242;BME280;69556;45.004;7.532;2023-07-02T06:27:06;97977.94;;;20.80;76.92
80242;BME280;69556;45.004;7.532;2023-07-02T06:29:32;97971.19;;;20.86;76.61
80242;BME280;69556;45.004;7.532;2023-07-02T06:31:57;97972.78;;;20.88;75.64
80242;BME280;69556;45.004;7.532;2023-07-02T06:34:22;97978.84;;;20.90;76.77
80242;BME280;69556;45.004;7.532;2023-07-02T06:36:48;97979.44;;;20.94;76.28
80242;BME280;69556;45.004;7.532;2023-07-02T06:39:13;97976.09;;;21.01;76.69
80242;BME280;69556;45.004;7.532;2023-07-02T06:41:39;97987.56;;;21.03;75.83
80242;BME280;69556;45.004;7.532;2023-07-02T06:44:04;97992.53;;;21.08;75.95
80242;BME280;69556;45.004;7.532;2023-07-02T06:46:30;97988.03;;;21.08;76.01
80242;BME280;69556;45.004;7.532;2023-07-02T06:48:55;97992.25;;;21.11;75.30
80242;BME280;69556;45.004;7.532;2023-07-02T06:51:21;97993.88;;;21.14;75.28
80242;BME280;69556;45.004;7.532;2023-07-02T06:53:47;97988.25;;;21.17;75.09
80242;BME280;69556;45.004;7.532;2023-07-02T06:56:12;97991.22;;;21.23;75.59
80242;BME280;69556;45.004;7.532;2023-07-02T06:58:39;97990.00;;;21.27;75.29
80242;BME280;69556;45.004;7.532;2023-07-02T07:01:05;97993.00;;;21.34;74.83
80242;BME280;69556;45.004;7.532;2023-07-02T07:03:30;97989.78;;;21.40;74.87
80242;BME280;69556;45.004;7.532;2023-07-02T07:08:21;97984.88;;;21.45;74.29
80242;BME280;69556;45.004;7.532;2023-07-02T07:10:46;97989.09;;;21.47;74.35
80242;BME280;69556;45.004;7.532;2023-07-02T07:13:12;97986.16;;;21.50;74.08
80242;BME280;69556;45.004;7.532;2023-07-02T07:15:38;97985.75;;;21.55;74.55
80242;BME280;69556;45.004;7.532;2023-07-02T07:18:03;97989.16;;;21.57;73.68
80242;BME280;69556;45.004;7.532;2023-07-02T07:20:30;97996.66;;;21.63;74.47
80242;BME280;69556;45.004;7.532;2023-07-02T07:22:56;97993.47;;;21.69;73.77
80242;BME280;69556;45.004;7.532;2023-07-02T07:25:21;97994.88;;;21.73;73.68
80242;BME280;69556;45.004;7.532;2023-07-02T07:27:47;97985.28;;;21.80;73.43
80242;BME280;69556;45.004;7.532;2023-07-02T07:30:12;97988.13;;;21.88;73.57
80242;BME280;69556;45.004;7.532;2023-07-02T07:32:39;97993.13;;;21.93;72.82
80242;BME280;69556;45.004;7.532;2023-07-02T07:35:05;97987.63;;;21.94;72.92
80242;BME280;69556;45.004;7.532;2023-07-02T07:37:30;97983.84;;;22.07;72.29
80242;BME280;69556;45.004;7.532;2023-07-02T07:39:55;97993.59;;;22.08;72.05
80242;BME280;69556;45.004;7.532;2023-07-02T07:42:21;97992.06;;;22.15;71.38
80242;BME280;69556;45.004;7.532;2023-07-02T07:44:46;98002.81;;;22.15;71.65
80242;BME280;69556;45.004;7.532;2023-07-02T07:47:12;97989.22;;;22.16;71.27
80242;BME280;69556;45.004;7.532;2023-07-02T07:49:38;97997.03;;;22.19;71.02
80242;BME280;69556;45.004;7.532;2023-07-02T07:52:03;97989.97;;;22.28;71.67
80242;BME280;69556;45.004;7.532;2023-07-02T07:54:31;97992.09;;;22.34;71.44
80242;BME280;69556;45.004;7.532;2023-07-02T07:56:57;97991.50;;;22.40;70.89
80242;BME280;69556;45.004;7.532;2023-07-02T07:59:22;97993.09;;;22.43;70.88
80242;BME280;69556;45.004;7.532;2023-07-02T08:01:48;97993.78;;;22.54;70.39
80242;BME280;69556;45.004;7.532;2023-07-02T08:04:13;97990.84;;;22.57;70.19
80242;BME280;69556;45.004;7.532;2023-07-02T08:06:38;97986.31;;;22.58;69.54
80242;BME280;69556;45.004;7.532;2023-07-02T08:09:04;97989.28;;;22.64;69.94
80242;BME280;69556;45.004;7.532;2023-07-02T08:11:29;97991.69;;;22.67;69.86
80242;BME280;69556;45.004;7.532;2023-07-02T08:13:54;97993.38;;;22.68;68.98
80242;BME280;69556;45.004;7.532;2023-07-02T08:16:21;97993.38;;;22.68;69.33
80242;BME280;69556;45.004;7.532;2023-07-02T08:18:46;98001.34;;;22.79;69.82
80242;BME280;69556;45.004;7.532;2023-07-02T08:21:12;97992.28;;;22.90;69.11
80242;BME280;69556;45.004;7.532;2023-07-02T08:23:37;97992.28;;;22.90;68.35
80242;BME280;69556;45.004;7.532;2023-07-02T08:26:03;97999.63;;;22.98;68.51
80242;BME280;69556;45.004;7.532;2023-07-02T08:28:28;97993.38;;;23.07;68.42
80242;BME280;69556;45.004;7.532;2023-07-02T08:30:54;97992.41;;;23.08;67.61
80242;BME280;69556;45.004;7.532;2023-07-02T08:33:19;97986.13;;;23.17;67.21
80242;BME280;69556;45.004;7.532;2023-07-02T08:35:45;97991.09;;;23.21;67.76
80242;BME280;69556;45.004;7.532;2023-07-02T08:38:11;97980.28;;;23.41;67.07
80242;BME280;69556;45.004;7.532;2023-07-02T08:40:36;97982.25;;;23.48;66.02
80242;BME280;69556;45.004;7.532;2023-07-02T08:43:01;97976.59;;;23.51;65.34
80242;BME280;69556;45.004;7.532;2023-07-02T08:45:27;97980.06;;;23.61;65.50
80242;BME280;69556;45.004;7.532;2023-07-02T08:47:53;97975.66;;;23.70;64.98
80242;BME280;69556;45.004;7.532;2023-07-02T08:50:23;97972.22;;;23.78;65.27
80242;BME280;69556;45.004;7.532;2023-07-02T08:52:49;97981.38;;;23.85;64.12
80242;BME280;69556;45.004;7.532;2023-07-02T08:55:14;97985.63;;;23.87;63.84
80242;BME280;69556;45.004;7.532;2023-07-02T08:57:40;97981.78;;;23.90;64.15
80242;BME280;69556;45.004;7.532;2023-07-02T09:00:14;97982.94;;;23.87;63.61
80242;BME280;69556;45.004;7.532;2023-07-02T09:02:40;97991.44;;;23.92;63.35
80242;BME280;69556;45.004;7.532;2023-07-02T09:05:05;97989.59;;;23.93;62.75
80242;BME280;69556;45.004;7.532;2023-07-02T09:07:31;97986.22;;;24.08;62.85
80242;BME280;69556;45.004;7.532;2023-07-02T09:09:56;97985.09;;;24.11;62.25
80242;BME280;69556;45.004;7.532;2023-07-02T09:12:23;97987.59;;;24.12;62.38
80242;BME280;69556;45.004;7.532;2023-07-02T09:15:04;97984.22;;;24.20;63.04
80242;BME280;69556;45.004;7.532;2023-07-02T09:17:40;97987.91;;;24.37;61.86
80242;BME280;69556;45.004;7.532;2023-07-02T09:20:06;97991.25;;;24.48;61.31
80242;BME280;69556;45.004;7.532;2023-07-02T09:22:36;97991.88;;;24.60;60.38
80242;BME280;69556;45.004;7.532;2023-07-02T09:25:02;97973.03;;;24.50;60.03
80242;BME280;69556;45.004;7.532;2023-07-02T09:27:41;97977.38;;;24.61;60.70
80242;BME280;69556;45.004;7.532;2023-07-02T09:30:11;97975.22;;;24.65;59.63
80242;BME280;69556;45.004;7.532;2023-07-02T09:32:38;97978.28;;;24.70;57.64
80242;BME280;69556;45.004;7.532;2023-07-02T09:35:04;97971.28;;;24.59;58.30
80242;BME280;69556;45.004;7.532;2023-07-02T09:37:30;97978.53;;;24.59;58.32
80242;BME280;69556;45.004;7.532;2023-07-02T09:39:56;97973.44;;;24.55;58.25
80242;BME280;69556;45.004;7.532;2023-07-02T09:42:22;97985.84;;;24.66;59.22
80242;BME280;69556;45.004;7.532;2023-07-02T09:44:48;97981.16;;;24.68;58.42
80242;BME280;69556;45.004;7.532;2023-07-02T09:47:18;97970.06;;;24.71;57.51
80242;BME280;69556;45.004;7.532;2023-07-02T09:50:13;97978.16;;;24.89;58.78
80242;BME280;69556;45.004;7.532;2023-07-02T09:52:39;97973.47;;;24.91;57.90
80242;BME280;69556;45.004;7.532;2023-07-02T09:55:06;97966.03;;;24.93;58.03
80242;BME280;69556;45.004;7.532;2023-07-02T09:57:32;97963.91;;;25.22;58.82
80242;BME280;69556;45.004;7.532;2023-07-02T10:00:02;97960.25;;;25.31;57.67
80242;BME280;69556;45.004;7.532;2023-07-02T10:02:28;97971.75;;;25.33;56.80
80242;BME280;69556;45.004;7.532;2023-07-02T10:04:54;97963.06;;;25.22;56.91
80242;BME280;69556;45.004;7.532;2023-07-02T10:07:31;97963.34;;;25.44;57.63
80242;BME280;69556;45.004;7.532;2023-07-02T10:09:59;97962.13;;;25.57;55.92
80242;BME280;69556;45.004;7.532;2023-07-02T10:12:27;97960.44;;;25.56;56.55
80242;BME280;69556;45.004;7.532;2023-07-02T10:14:54;97959.03;;;25.52;56.42
80242;BME280;69556;45.004;7.532;2023-07-02T10:17:27;97959.88;;;25.52;56.20
80242;BME280;69556;45.004;7.532;2023-07-02T10:19:58;97965.41;;;25.76;55.61
80242;BME280;69556;45.004;7.532;2023-07-02T10:22:24;97956.16;;;25.79;54.81
80242;BME280;69556;45.004;7.532;2023-07-02T10:24:53;97961.22;;;25.82;54.90
80242;BME280;69556;45.004;7.532;2023-07-02T10:27:20;97959.50;;;25.81;55.17
80242;BME280;69556;45.004;7.532;2023-07-02T10:29:49;97954.03;;;26.07;55.96
80242;BME280;69556;45.004;7.532;2023-07-02T10:32:26;97969.00;;;26.27;56.29
80242;BME280;69556;45.004;7.532;2023-07-02T10:34:52;97960.41;;;26.32;57.50
80242;BME280;69556;45.004;7.532;2023-07-02T10:37:18;97958.06;;;26.45;56.94
80242;BME280;69556;45.004;7.532;2023-07-02T10:39:44;97970.75;;;26.60;55.78
80242;BME280;69556;45.004;7.532;2023-07-02T10:42:10;97971.78;;;26.67;55.41
80242;BME280;69556;45.004;7.532;2023-07-02T10:44:52;97977.72;;;26.79;54.74
80242;BME280;69556;45.004;7.532;2023-07-02T10:47:18;97969.66;;;26.87;54.48
80242;BME280;69556;45.004;7.532;2023-07-02T10:49:44;97964.03;;;26.89;54.21
80242;BME280;69556;45.004;7.532;2023-07-02T10:52:10;97960.16;;;26.99;54.65
80242;BME280;69556;45.004;7.532;2023-07-02T10:54:46;97955.06;;;27.12;53.99
80242;BME280;69556;45.004;7.532;2023-07-02T10:57:17;97964.16;;;27.36;54.12
80242;BME280;69556;45.004;7.532;2023-07-02T10:59:45;97960.09;;;27.48;53.76
80242;BME280;69556;45.004;7.532;2023-07-02T11:02:11;97959.75;;;27.59;53.15
80242;BME280;69556;45.004;7.532;2023-07-02T11:04:37;97960.78;;;27.50;53.36
80242;BME280;69556;45.004;7.532;2023-07-02T11:07:03;97956.69;;;27.62;55.37
80242;BME280;69556;45.004;7.532;2023-07-02T11:09:28;97951.59;;;27.59;53.79
80242;BME280;69556;45.004;7.532;2023-07-02T11:11:58;97957.00;;;27.75;54.00
80242;BME280;69556;45.004;7.532;2023-07-02T11:14:32;97956.75;;;27.93;52.37
80242;BME280;69556;45.004;7.532;2023-07-02T11:17:01;97949.72;;;28.07;53.41
80242;BME280;69556;45.004;7.532;2023-07-02T11:19:28;97942.03;;;28.26;52.47
80242;BME280;69556;45.004;7.532;2023-07-02T11:21:55;97949.81;;;28.52;52.21
80242;BME280;69556;45.004;7.532;2023-07-02T11:24:35;97951.16;;;28.56;51.12
80242;BME280;69556;45.004;7.532;2023-07-02T11:27:01;97944.94;;;28.70;51.06
80242;BME280;69556;45.004;7.532;2023-07-02T11:29:32;97951.78;;;28.89;49.56
80242;BME280;69556;45.004;7.532;2023-07-02T11:32:11;97951.00;;;28.80;48.53
80242;BME280;69556;45.004;7.532;2023-07-02T11:34:40;97955.63;;;28.95;47.89
80242;BME280;69556;45.004;7.532;2023-07-02T11:37:06;97955.63;;;28.95;46.70
80242;BME280;69556;45.004;7.532;2023-07-02T11:39:32;97940.69;;;29.13;47.37
80242;BME280;69556;45.004;7.532;2023-07-02T11:41:57;97944.97;;;29.30;45.06
80242;BME280;69556;45.004;7.532;2023-07-02T11:44:23;97943.84;;;29.40;45.81
80242;BME280;69556;45.004;7.532;2023-07-02T11:46:49;97942.47;;;29.58;47.27
80242;BME280;69556;45.004;7.532;2023-07-02T11:49:14;97941.91;;;29.92;47.77
80242;BME280;69556;45.004;7.532;2023-07-02T11:51:41;97940.75;;;30.16;45.26
80242;BME280;69556;45.004;7.532;2023-07-02T11:54:11;97938.97;;;30.23;45.72
80242;BME280;69556;45.004;7.532;2023-07-02T11:56:37;97942.34;;;30.25;44.41
80242;BME280;69556;45.004;7.532;2023-07-02T11:59:03;97940.53;;;30.32;44.62
80242;BME280;69556;45.004;7.532;2023-07-02T12:01:28;97931.22;;;30.41;42.64
80242;BME280;69556;45.004;7.532;2023-07-02T12:03:54;97929.22;;;30.71;42.92
80242;BME280;69556;45.004;7.532;2023-07-02T12:06:19;97931.91;;;30.86;43.46
80242;BME280;69556;45.004;7.532;2023-07-02T12:08:44;97927.63;;;30.77;41.71
80242;BME280;69556;45.004;7.532;2023-07-02T12:11:10;97925.06;;;30.75;41.09
80242;BME280;69556;45.004;7.532;2023-07-02T12:13:36;97928.06;;;30.80;41.61
80242;BME280;69556;45.004;7.532;2023-07-02T12:16:01;97918.72;;;30.89;41.60
80242;BME280;69556;45.004;7.532;2023-07-02T12:18:27;97919.06;;;31.01;40.88
80242;BME280;69556;45.004;7.532;2023-07-02T12:20:52;97912.94;;;30.99;40.81
80242;BME280;69556;45.004;7.532;2023-07-02T12:23:17;97918.31;;;31.14;40.07
80242;BME280;69556;45.004;7.532;2023-07-02T12:25:42;97922.16;;;31.19;40.88
80242;BME280;69556;45.004;7.532;2023-07-02T12:28:08;97912.19;;;31.33;39.92
80242;BME280;69556;45.004;7.532;2023-07-02T12:30:33;97918.47;;;31.33;39.35
80242;BME280;69556;45.004;7.532;2023-07-02T12:32:58;97918.91;;;31.37;39.14
80242;BME280;69556;45.004;7.532;2023-07-02T12:35:24;97927.34;;;31.70;40.55
80242;BME280;69556;45.004;7.532;2023-07-02T12:37:50;97922.13;;;31.75;39.29
80242;BME280;69556;45.004;7.532;2023-07-02T12:40:17;97924.28;;;31.86;38.35
80242;BME280;69556;45.004;7.532;2023-07-02T12:42:43;97924.19;;;31.66;37.91
80242;BME280;69556;45.004;7.532;2023-07-02T12:45:10;97929.75;;;31.92;38.94
80242;BME280;69556;45.004;7.532;2023-07-02T12:47:36;97931.19;;;32.23;37.21
80242;BME280;69556;45.004;7.532;2023-07-02T12:50:02;97925.63;;;32.03;36.15
80242;BME280;69556;45.004;7.532;2023-07-02T12:52:28;97930.03;;;32.04;36.88
80242;BME280;69556;45.004;7.532;2023-07-02T12:54:54;97931.19;;;32.29;36.70
80242;BME280;69556;45.004;7.532;2023-07-02T12:57:20;97933.03;;;32.76;36.87